Archimede — IXZR — position and weather

sailwx.info

Track history (hours):
 
Tides and Currents Weather Stations Pressure Air Temp Water Temp Dewpoint Dewpoint Depression Visibility Wind Speed Wind Dir Waves Ship Positions

Archimede

Last reported at 2016-Jul-31 01:04 UTC. Time now 2016-Jul-31 07:20 UTC.
Position N 38°13' E 015°34'.

; draft 3.1 m.

Type: Passenger vessel. MMSI: 247054700.

Date/timePositionNaut miles runAvg speedWind from/ knotsBaromVisibWave heightAir tempDewpointWater temp
2016-Jul-31 01:04N 38°13' E 015°34'0 0.2
2016-Jul-31 00:33N 38°13' E 015°34'4 2.2
2016-Jul-30 22:33N 38°08' E 015°34'6 5.8
2016-Jul-30 21:34N 38°14' E 015°36'6 6.0
2016-Jul-30 20:33N 38°08' E 015°33'6 6.1
2016-Jul-30 19:33N 38°14' E 015°37'1 0.8
2016-Jul-30 18:33N 38°13' E 015°38'0 0.0
2016-Jul-30 17:33N 38°13' E 015°38'0 0.0
2016-Jul-30 16:33N 38°13' E 015°38'1 1.5
2016-Jul-30 15:33N 38°13' E 015°36'1 1.3
2016-Jul-30 14:33N 38°13' E 015°35'1 0.7
2016-Jul-30 13:33N 38°13' E 015°34'3 3.4
2016-Jul-30 12:33N 38°13' E 015°38'5 5.0
2016-Jul-30 11:33N 38°09' E 015°35'3 3.3
2016-Jul-30 10:33N 38°12' E 015°36'4 3.5
2016-Jul-30 09:33N 38°09' E 015°35'2 2.5
2016-Jul-30 08:33N 38°11' E 015°35'2 2.3
2016-Jul-30 07:33N 38°09' E 015°36'2 2.2
2016-Jul-30 06:33N 38°09' E 015°33'6 1.2
2016-Jul-30 01:22N 38°13' E 015°38'7 9.0
2016-Jul-30 00:33N 38°08' E 015°31'6 6.4
2016-Jul-29 23:34N 38°13' E 015°36'5 4.9
2016-Jul-29 22:33N 38°08' E 015°34'5 4.7
2016-Jul-29 21:34N 38°13' E 015°36'5 4.6
2016-Jul-29 20:33N 38°08' E 015°35'5 4.9
2016-Jul-29 19:33N 38°13' E 015°37'6 5.7
2016-Jul-29 18:33N 38°08' E 015°33'4 4.3
2016-Jul-29 17:33N 38°13' E 015°34'3 3.1
2016-Jul-29 16:33N 38°11' E 015°37'3 3.1
2016-Jul-29 15:33N 38°09' E 015°34'5 5.4
2016-Jul-29 14:33N 38°13' E 015°38'7 7.5
2016-Jul-29 13:34N 38°08' E 015°31'7 7.5
2016-Jul-29 12:33N 38°13' E 015°38'6 5.6
2016-Jul-29 11:33N 38°09' E 015°34'5 4.6
2016-Jul-29 10:33N 38°13' E 015°36'4 4.4
2016-Jul-29 09:33N 38°09' E 015°35'4 3.8
2016-Jul-29 08:33N 38°12' E 015°36'3 3.5
2016-Jul-29 07:33N 38°09' E 015°35'1 1.4
2016-Jul-29 06:34N 38°10' E 015°34'3 0.6
2016-Jul-29 01:33N 38°12' E 015°37'6 6.2
2016-Jul-29 00:33N 38°08' E 015°31'7 7.4
2016-Jul-28 23:33N 38°13' E 015°38'7 7.4
2016-Jul-28 22:33N 38°08' E 015°31'7 7.4
2016-Jul-28 21:33N 38°13' E 015°38'7 7.0
2016-Jul-28 20:33N 38°08' E 015°32'6 6.4
2016-Jul-28 19:33N 38°13' E 015°37'4 4.0
2016-Jul-28 18:34N 38°09' E 015°36'2 1.6
2016-Jul-28 17:34N 38°10' E 015°35'2 2.1
2016-Jul-28 16:33N 38°11' E 015°37'4 3.7
2016-Jul-28 15:33N 38°09' E 015°33'6 5.6
2016-Jul-28 14:33N 38°13' E 015°38'7 7.5
2016-Jul-28 13:33N 38°08' E 015°31'7 7.5
2016-Jul-28 12:33N 38°13' E 015°38'6 6.1
2016-Jul-28 11:33N 38°08' E 015°34'5 4.7
2016-Jul-28 10:33N 38°13' E 015°36'4 3.9
2016-Jul-28 09:33N 38°09' E 015°35'3 3.2
2016-Jul-28 08:33N 38°12' E 015°35'3 3.2
2016-Jul-28 07:33N 38°09' E 015°36'2 2.2
2016-Jul-28 06:34N 38°11' E 015°35'3 0.6
2016-Jul-28 01:31N 38°13' E 015°38'7 7.7
2016-Jul-28 00:33N 38°08' E 015°31'7 6.7
2016-Jul-27 23:33N 38°13' E 015°37'6 6.0
2016-Jul-27 22:33N 38°08' E 015°32'7 6.7
2016-Jul-27 21:33N 38°13' E 015°38'7 7.4
2016-Jul-27 20:33N 38°08' E 015°31'7 7.0
2016-Jul-27 19:33N 38°13' E 015°37'4 1.6
2016-Jul-27 17:22N 38°10' E 015°35'3 3.6
2016-Jul-27 16:34N 38°12' E 015°37'6 6.4
2016-Jul-27 15:33N 38°08' E 015°32'7 7.4
2016-Jul-27 14:33N 38°13' E 015°38'7 7.4
2016-Jul-27 13:33N 38°08' E 015°31'7 7.6
2016-Jul-27 12:33N 38°13' E 015°38'6 6.3
2016-Jul-27 11:33N 38°08' E 015°33'5 4.9
2016-Jul-27 10:33N 38°13' E 015°36'3 3.3
2016-Jul-27 09:33N 38°09' E 015°36'2 1.5
2016-Jul-27 08:33N 38°10' E 015°35'2 1.9
2016-Jul-27 07:33N 38°11' E 015°37'3 3.2
2016-Jul-27 06:33N 38°09' E 015°33'5 1.1
2016-Jul-27 01:28N 38°13' E 015°38'7 8.1
2016-Jul-27 00:33N 38°08' E 015°31'7 7.5
2016-Jul-26 23:33N 38°13' E 015°38'7 7.5
2016-Jul-26 22:33N 38°08' E 015°31'7 7.5
2016-Jul-26 21:33N 38°13' E 015°38'8 7.5
2016-Jul-26 20:33N 38°08' E 015°31'7 7.3
2016-Jul-26 19:33N 38°14' E 015°37'4 4.4
2016-Jul-26 18:33N 38°09' E 015°36'2 2.1
2016-Jul-26 17:33N 38°09' E 015°33'4 4.5
2016-Jul-26 16:34N 38°12' E 015°37'6 6.4
2016-Jul-26 15:33N 38°08' E 015°31'7 7.4
2016-Jul-26 14:34N 38°13' E 015°38'7 7.3
2016-Jul-26 13:33N 38°08' E 015°31'7 7.5
2016-Jul-26 12:33N 38°13' E 015°38'7 7.3
2016-Jul-26 11:33N 38°08' E 015°32'7 7.1
2016-Jul-26 10:34N 38°13' E 015°38'6 6.1
2016-Jul-26 09:33N 38°08' E 015°33'5 5.3
2016-Jul-26 08:33N 38°13' E 015°37'5 4.8
2016-Jul-26 07:33N 38°09' E 015°34'4 4.3
2016-Jul-26 06:34N 38°12' E 015°36'2 0.3
2016-Jul-26 00:33N 38°13' E 015°38'0 0.1
2016-Jul-25 23:34N 38°13' E 015°38'3 3.1
2016-Jul-25 22:34N 38°13' E 015°34'3 3.0
2016-Jul-25 21:33N 38°13' E 015°38'7 7.4
2016-Jul-25 20:33N 38°08' E 015°31'7 7.4
2016-Jul-25 19:33N 38°13' E 015°38'2 2.1
2016-Jul-25 18:34N 38°11' E 015°37'4 4.0
2016-Jul-25 17:34N 38°09' E 015°33'5 5.1
2016-Jul-25 16:33N 38°13' E 015°37'7 6.5
2016-Jul-25 15:34N 38°08' E 015°31'7 7.5
2016-Jul-25 14:33N 38°13' E 015°38'7 7.5
2016-Jul-25 13:33N 38°08' E 015°31'7 7.5
2016-Jul-25 12:33N 38°13' E 015°38'6 6.2
2016-Jul-25 11:33N 38°08' E 015°33'5 5.0
2016-Jul-25 10:34N 38°13' E 015°36'2 1.8
2016-Jul-25 09:33N 38°12' E 015°34'0 0.0
2016-Jul-25 08:33N 38°12' E 015°34'0 0.0
2016-Jul-25 07:33N 38°12' E 015°34'0 0.0
2016-Jul-25 06:33N 38°12' E 015°34'0 0.0
2016-Jul-23 23:28N 38°12' E 015°34'4 4.2
2016-Jul-23 22:33N 38°09' E 015°36'4 3.8
2016-Jul-23 21:33N 38°13' E 015°36'5 5.2
2016-Jul-23 20:33N 38°08' E 015°32'6 6.3
2016-Jul-23 19:33N 38°13' E 015°37'1 0.6
2016-Jul-23 18:34N 38°13' E 015°38'0 0.0
2016-Jul-23 17:33N 38°13' E 015°38'0 0.0
2016-Jul-23 16:33N 38°13' E 015°38'0 0.0
2016-Jul-23 15:33N 38°13' E 015°38'3 3.4
2016-Jul-23 14:33N 38°13' E 015°34'3 1.7
2016-Jul-23 12:33N 38°13' E 015°38'1 0.6
2016-Jul-23 10:33N 38°13' E 015°36'2 2.4
2016-Jul-23 09:31N 38°11' E 015°37'5 4.8
2016-Jul-23 08:25N 38°08' E 015°31'7 8.1
2016-Jul-23 07:29N 38°13' E 015°38'0 0.0
2016-Jul-23 06:29N 38°13' E 015°38'4 0.7
2016-Jul-23 00:33N 38°09' E 015°36'4 4.1
2016-Jul-22 23:34N 38°13' E 015°37'7 6.8
2016-Jul-22 22:32N 38°08' E 015°31'7 7.6
2016-Jul-22 21:33N 38°13' E 015°38'7 7.4
2016-Jul-22 20:34N 38°08' E 015°31'7 7.5
2016-Jul-22 19:33N 38°13' E 015°38'0 0.1
2016-Jul-22 18:33N 38°14' E 015°38'7 7.0
2016-Jul-22 17:31N 38°08' E 015°32'7 7.5
2016-Jul-22 16:33N 38°13' E 015°38'7 5.6
2016-Jul-22 15:18N 38°08' E 015°32'7 9.5
2016-Jul-22 14:33N 38°13' E 015°38'7 6.9
2016-Jul-22 13:33N 38°08' E 015°32'6 6.2
2016-Jul-22 12:33N 38°13' E 015°37'4 3.8
2016-Jul-22 11:33N 38°09' E 015°36'1 0.6
2016-Jul-22 09:18N 38°09' E 015°34'1 1.2
2016-Jul-22 08:33N 38°10' E 015°34'2 2.3
2016-Jul-22 07:33N 38°10' E 015°37'2 1.9
2016-Jul-22 06:33N 38°10' E 015°35'4 1.0
2016-Jul-22 02:06N 38°13' E 015°38'0 0.0
2016-Jul-22 01:33N 38°13' E 015°38'7 7.4
2016-Jul-22 00:33N 38°08' E 015°31'7 7.4
2016-Jul-21 23:34N 38°13' E 015°38'7 7.4
2016-Jul-21 22:33N 38°08' E 015°31'7 7.4
2016-Jul-21 21:33N 38°13' E 015°38'7 7.4
2016-Jul-21 20:33N 38°08' E 015°31'7 7.4
2016-Jul-21 19:33N 38°13' E 015°38'7 7.3
2016-Jul-21 18:33N 38°08' E 015°31'7 7.5
2016-Jul-21 17:33N 38°13' E 015°38'7 7.3
2016-Jul-21 16:33N 38°08' E 015°32'4 4.0
2016-Jul-21 15:33N 38°11' E 015°35'2 1.7
2016-Jul-21 14:33N 38°11' E 015°37'5 5.1
2016-Jul-21 13:33N 38°08' E 015°32'7 7.0
2016-Jul-21 12:33N 38°13' E 015°38'7 7.3
2016-Jul-21 11:33N 38°08' E 015°31'5 4.8
2016-Jul-21 10:33N 38°11' E 015°36'2 1.7
2016-Jul-21 09:33N 38°10' E 015°37'2 2.2
2016-Jul-21 08:33N 38°10' E 015°34'2 2.0
2016-Jul-21 07:33N 38°09' E 015°37'2 1.8
2016-Jul-21 06:33N 38°11' E 015°35'4 0.7
2016-Jul-21 01:30N 38°13' E 015°38'  
Track history (hours):
 
Tides and Currents Weather Stations Pressure Air Temp Water Temp Dewpoint Dewpoint Depression Visibility Wind Speed Wind Dir Waves Ship Positions

Archimede

Last reported at 2016-Jul-31 01:04 UTC. Time now 2016-Jul-31 07:20 UTC.
Position N 38°13' E 015°34'.

; draft 3.1 m.

Type: Passenger vessel. MMSI: 247054700.

Date/timePositionNaut miles runAvg speedWind from/ knotsBaromVisibWave heightAir tempDewpointWater temp
2016-Jul-31 01:04N 38°13' E 015°34'0 0.2
2016-Jul-31 00:33N 38°13' E 015°34'4 2.2
2016-Jul-30 22:33N 38°08' E 015°34'6 5.8
2016-Jul-30 21:34N 38°14' E 015°36'6 6.0
2016-Jul-30 20:33N 38°08' E 015°33'6 6.1
2016-Jul-30 19:33N 38°14' E 015°37'1 0.8
2016-Jul-30 18:33N 38°13' E 015°38'0 0.0
2016-Jul-30 17:33N 38°13' E 015°38'0 0.0
2016-Jul-30 16:33N 38°13' E 015°38'1 1.5
2016-Jul-30 15:33N 38°13' E 015°36'1 1.3
2016-Jul-30 14:33N 38°13' E 015°35'1 0.7
2016-Jul-30 13:33N 38°13' E 015°34'3 3.4
2016-Jul-30 12:33N 38°13' E 015°38'5 5.0
2016-Jul-30 11:33N 38°09' E 015°35'3 3.3
2016-Jul-30 10:33N 38°12' E 015°36'4 3.5
2016-Jul-30 09:33N 38°09' E 015°35'2 2.5
2016-Jul-30 08:33N 38°11' E 015°35'2 2.3
2016-Jul-30 07:33N 38°09' E 015°36'2 2.2
2016-Jul-30 06:33N 38°09' E 015°33'6 1.2
2016-Jul-30 01:22N 38°13' E 015°38'7 9.0
2016-Jul-30 00:33N 38°08' E 015°31'6 6.4
2016-Jul-29 23:34N 38°13' E 015°36'5 4.9
2016-Jul-29 22:33N 38°08' E 015°34'5 4.7
2016-Jul-29 21:34N 38°13' E 015°36'5 4.6
2016-Jul-29 20:33N 38°08' E 015°35'5 4.9
2016-Jul-29 19:33N 38°13' E 015°37'6 5.7
2016-Jul-29 18:33N 38°08' E 015°33'4 4.3
2016-Jul-29 17:33N 38°13' E 015°34'3 3.1
2016-Jul-29 16:33N 38°11' E 015°37'3 3.1
2016-Jul-29 15:33N 38°09' E 015°34'5 5.4
2016-Jul-29 14:33N 38°13' E 015°38'7 7.5
2016-Jul-29 13:34N 38°08' E 015°31'7 7.5
2016-Jul-29 12:33N 38°13' E 015°38'6 5.6
2016-Jul-29 11:33N 38°09' E 015°34'5 4.6
2016-Jul-29 10:33N 38°13' E 015°36'4 4.4
2016-Jul-29 09:33N 38°09' E 015°35'4 3.8
2016-Jul-29 08:33N 38°12' E 015°36'3 3.5
2016-Jul-29 07:33N 38°09' E 015°35'1 1.4
2016-Jul-29 06:34N 38°10' E 015°34'3 0.6
2016-Jul-29 01:33N 38°12' E 015°37'6 6.2
2016-Jul-29 00:33N 38°08' E 015°31'7 7.4
2016-Jul-28 23:33N 38°13' E 015°38'7 7.4
2016-Jul-28 22:33N 38°08' E 015°31'7 7.4
2016-Jul-28 21:33N 38°13' E 015°38'7 7.0
2016-Jul-28 20:33N 38°08' E 015°32'6 6.4
2016-Jul-28 19:33N 38°13' E 015°37'4 4.0
2016-Jul-28 18:34N 38°09' E 015°36'2 1.6
2016-Jul-28 17:34N 38°10' E 015°35'2 2.1
2016-Jul-28 16:33N 38°11' E 015°37'4 3.7
2016-Jul-28 15:33N 38°09' E 015°33'6 5.6
2016-Jul-28 14:33N 38°13' E 015°38'7 7.5
2016-Jul-28 13:33N 38°08' E 015°31'7 7.5
2016-Jul-28 12:33N 38°13' E 015°38'6 6.1
2016-Jul-28 11:33N 38°08' E 015°34'5 4.7
2016-Jul-28 10:33N 38°13' E 015°36'4 3.9
2016-Jul-28 09:33N 38°09' E 015°35'3 3.2
2016-Jul-28 08:33N 38°12' E 015°35'3 3.2
2016-Jul-28 07:33N 38°09' E 015°36'2 2.2
2016-Jul-28 06:34N 38°11' E 015°35'3 0.6
2016-Jul-28 01:31N 38°13' E 015°38'7 7.7
2016-Jul-28 00:33N 38°08' E 015°31'7 6.7
2016-Jul-27 23:33N 38°13' E 015°37'6 6.0
2016-Jul-27 22:33N 38°08' E 015°32'7 6.7
2016-Jul-27 21:33N 38°13' E 015°38'7 7.4
2016-Jul-27 20:33N 38°08' E 015°31'7 7.0
2016-Jul-27 19:33N 38°13' E 015°37'4 1.6
2016-Jul-27 17:22N 38°10' E 015°35'3 3.6
2016-Jul-27 16:34N 38°12' E 015°37'6 6.4
2016-Jul-27 15:33N 38°08' E 015°32'7 7.4
2016-Jul-27 14:33N 38°13' E 015°38'7 7.4
2016-Jul-27 13:33N 38°08' E 015°31'7 7.6
2016-Jul-27 12:33N 38°13' E 015°38'6 6.3
2016-Jul-27 11:33N 38°08' E 015°33'5 4.9
2016-Jul-27 10:33N 38°13' E 015°36'3 3.3
2016-Jul-27 09:33N 38°09' E 015°36'2 1.5
2016-Jul-27 08:33N 38°10' E 015°35'2 1.9
2016-Jul-27 07:33N 38°11' E 015°37'3 3.2
2016-Jul-27 06:33N 38°09' E 015°33'5 1.1
2016-Jul-27 01:28N 38°13' E 015°38'7 8.1
2016-Jul-27 00:33N 38°08' E 015°31'7 7.5
2016-Jul-26 23:33N 38°13' E 015°38'7 7.5
2016-Jul-26 22:33N 38°08' E 015°31'7 7.5
2016-Jul-26 21:33N 38°13' E 015°38'8 7.5
2016-Jul-26 20:33N 38°08' E 015°31'7 7.3
2016-Jul-26 19:33N 38°14' E 015°37'4 4.4
2016-Jul-26 18:33N 38°09' E 015°36'2 2.1
2016-Jul-26 17:33N 38°09' E 015°33'4 4.5
2016-Jul-26 16:34N 38°12' E 015°37'6 6.4
2016-Jul-26 15:33N 38°08' E 015°31'7 7.4
2016-Jul-26 14:34N 38°13' E 015°38'7 7.3
2016-Jul-26 13:33N 38°08' E 015°31'7 7.5
2016-Jul-26 12:33N 38°13' E 015°38'7 7.3
2016-Jul-26 11:33N 38°08' E 015°32'7 7.1
2016-Jul-26 10:34N 38°13' E 015°38'6 6.1
2016-Jul-26 09:33N 38°08' E 015°33'5 5.3
2016-Jul-26 08:33N 38°13' E 015°37'5 4.8
2016-Jul-26 07:33N 38°09' E 015°34'4 4.3
2016-Jul-26 06:34N 38°12' E 015°36'2 0.3
2016-Jul-26 00:33N 38°13' E 015°38'0 0.1
2016-Jul-25 23:34N 38°13' E 015°38'3 3.1
2016-Jul-25 22:34N 38°13' E 015°34'3 3.0
2016-Jul-25 21:33N 38°13' E 015°38'7 7.4
2016-Jul-25 20:33N 38°08' E 015°31'7 7.4
2016-Jul-25 19:33N 38°13' E 015°38'2 2.1
2016-Jul-25 18:34N 38°11' E 015°37'4 4.0
2016-Jul-25 17:34N 38°09' E 015°33'5 5.1
2016-Jul-25 16:33N 38°13' E 015°37'7 6.5
2016-Jul-25 15:34N 38°08' E 015°31'7 7.5
2016-Jul-25 14:33N 38°13' E 015°38'7 7.5
2016-Jul-25 13:33N 38°08' E 015°31'7 7.5
2016-Jul-25 12:33N 38°13' E 015°38'6 6.2
2016-Jul-25 11:33N 38°08' E 015°33'5 5.0
2016-Jul-25 10:34N 38°13' E 015°36'2 1.8
2016-Jul-25 09:33N 38°12' E 015°34'0 0.0
2016-Jul-25 08:33N 38°12' E 015°34'0 0.0
2016-Jul-25 07:33N 38°12' E 015°34'0 0.0
2016-Jul-25 06:33N 38°12' E 015°34'0 0.0
2016-Jul-23 23:28N 38°12' E 015°34'4 4.2
2016-Jul-23 22:33N 38°09' E 015°36'4 3.8
2016-Jul-23 21:33N 38°13' E 015°36'5 5.2
2016-Jul-23 20:33N 38°08' E 015°32'6 6.3
2016-Jul-23 19:33N 38°13' E 015°37'1 0.6
2016-Jul-23 18:34N 38°13' E 015°38'0 0.0
2016-Jul-23 17:33N 38°13' E 015°38'0 0.0
2016-Jul-23 16:33N 38°13' E 015°38'0 0.0
2016-Jul-23 15:33N 38°13' E 015°38'3 3.4
2016-Jul-23 14:33N 38°13' E 015°34'3 1.7
2016-Jul-23 12:33N 38°13' E 015°38'1 0.6
2016-Jul-23 10:33N 38°13' E 015°36'2 2.4
2016-Jul-23 09:31N 38°11' E 015°37'5 4.8
2016-Jul-23 08:25N 38°08' E 015°31'7 8.1
2016-Jul-23 07:29N 38°13' E 015°38'0 0.0
2016-Jul-23 06:29N 38°13' E 015°38'4 0.7
2016-Jul-23 00:33N 38°09' E 015°36'4 4.1
2016-Jul-22 23:34N 38°13' E 015°37'7 6.8
2016-Jul-22 22:32N 38°08' E 015°31'7 7.6
2016-Jul-22 21:33N 38°13' E 015°38'7 7.4
2016-Jul-22 20:34N 38°08' E 015°31'7 7.5
2016-Jul-22 19:33N 38°13' E 015°38'0 0.1
2016-Jul-22 18:33N 38°14' E 015°38'7 7.0
2016-Jul-22 17:31N 38°08' E 015°32'7 7.5
2016-Jul-22 16:33N 38°13' E 015°38'7 5.6
2016-Jul-22 15:18N 38°08' E 015°32'7 9.5
2016-Jul-22 14:33N 38°13' E 015°38'7 6.9
2016-Jul-22 13:33N 38°08' E 015°32'6 6.2
2016-Jul-22 12:33N 38°13' E 015°37'4 3.8
2016-Jul-22 11:33N 38°09' E 015°36'1 0.6
2016-Jul-22 09:18N 38°09' E 015°34'1 1.2
2016-Jul-22 08:33N 38°10' E 015°34'2 2.3
2016-Jul-22 07:33N 38°10' E 015°37'2 1.9
2016-Jul-22 06:33N 38°10' E 015°35'4 1.0
2016-Jul-22 02:06N 38°13' E 015°38'0 0.0
2016-Jul-22 01:33N 38°13' E 015°38'7 7.4
2016-Jul-22 00:33N 38°08' E 015°31'7 7.4
2016-Jul-21 23:34N 38°13' E 015°38'7 7.4
2016-Jul-21 22:33N 38°08' E 015°31'7 7.4
2016-Jul-21 21:33N 38°13' E 015°38'7 7.4
2016-Jul-21 20:33N 38°08' E 015°31'7 7.4
2016-Jul-21 19:33N 38°13' E 015°38'7 7.3
2016-Jul-21 18:33N 38°08' E 015°31'7 7.5
2016-Jul-21 17:33N 38°13' E 015°38'7 7.3
2016-Jul-21 16:33N 38°08' E 015°32'4 4.0
2016-Jul-21 15:33N 38°11' E 015°35'2 1.7
2016-Jul-21 14:33N 38°11' E 015°37'5 5.1
2016-Jul-21 13:33N 38°08' E 015°32'7 7.0
2016-Jul-21 12:33N 38°13' E 015°38'7 7.3
2016-Jul-21 11:33N 38°08' E 015°31'5 4.8
2016-Jul-21 10:33N 38°11' E 015°36'2 1.7
2016-Jul-21 09:33N 38°10' E 015°37'2 2.2
2016-Jul-21 08:33N 38°10' E 015°34'2 2.0
2016-Jul-21 07:33N 38°09' E 015°37'2 1.8
2016-Jul-21 06:33N 38°11' E 015°35'4 0.7
2016-Jul-21 01:30N 38°13' E 015°38'  

Dump ship's entire track history